GLO1992 SBIL-SBKG
Flight info
| Callsign | GLO1992 |
|---|---|
| Flight time | 1h 26m |
| Altitude | 13500 |
| Route | VUREK/N0453F330 IFR UZ73 OPMUD DCT MUDAR |
| Aircraft | B738/M-SDE2E3FGHIRWXY/LB1 |
Departure
| Time | 2026-04-21 16:39 |
|---|---|
| Airport | Bahia - Jorge Amado Airport (SBIL) |
Arrival
| Time | 2026-04-21 18:06 |
|---|---|
| Airport | Presidente João Suassuna Airport (SBKG) |
| Time | Latitude | Longitude | Altitude | Speed | Heading |
|---|---|---|---|---|---|
| 2026-04-21 16:14 | -14.81446 | -39.03160 | 19 ft | 0 kts | 314° |
| 2026-04-21 16:31 | -14.81450 | -39.03155 | 46 ft | 2 kts | 316° |
| 2026-04-21 16:31 | -14.81463 | -39.03144 | 18 ft | 2 kts | 335° |
| 2026-04-21 16:32 | -14.81479 | -39.03145 | 21 ft | 2 kts | 66° |
| 2026-04-21 16:32 | -14.81481 | -39.03155 | 19 ft | 1 kts | 85° |
| 2026-04-21 16:32 | -14.81482 | -39.03156 | 19 ft | 0 kts | 86° |
| 2026-04-21 16:34 | -14.81479 | -39.03125 | 18 ft | 5 kts | 87° |
| 2026-04-21 16:35 | -14.81493 | -39.03092 | 18 ft | 5 kts | 142° |
| 2026-04-21 16:35 | -14.81532 | -39.03082 | 17 ft | 6 kts | 173° |
| 2026-04-21 16:35 | -14.81569 | -39.03061 | 17 ft | 6 kts | 125° |
| 2026-04-21 16:35 | -14.81581 | -39.03019 | 19 ft | 6 kts | 95° |
| 2026-04-21 16:36 | -14.81581 | -39.02975 | 17 ft | 6 kts | 89° |
| 2026-04-21 16:36 | -14.81580 | -39.02932 | 17 ft | 6 kts | 89° |
| 2026-04-21 16:36 | -14.81580 | -39.02886 | 19 ft | 7 kts | 89° |
| 2026-04-21 16:36 | -14.81578 | -39.02839 | 17 ft | 7 kts | 88° |
| 2026-04-21 16:37 | -14.81577 | -39.02792 | 18 ft | 6 kts | 88° |
| 2026-04-21 16:37 | -14.81575 | -39.02746 | 18 ft | 6 kts | 88° |
| 2026-04-21 16:37 | -14.81573 | -39.02700 | 18 ft | 6 kts | 87° |
| 2026-04-21 16:37 | -14.81590 | -39.02660 | 19 ft | 6 kts | 124° |
| 2026-04-21 16:38 | -14.81593 | -39.02622 | 19 ft | 6 kts | 46° |
| 2026-04-21 16:38 | -14.81562 | -39.02633 | 21 ft | 5 kts | 292° |
| 2026-04-21 16:38 | -14.81572 | -39.02667 | 20 ft | 5 kts | 251° |
| 2026-04-21 16:38 | -14.81574 | -39.02680 | 18 ft | 0 kts | 265° |
| 2026-04-21 16:39 | -14.81578 | -39.02794 | 18 ft | 55 kts | 269° |
| 2026-04-21 16:39 | -14.81597 | -39.03502 | 20 ft | 139 kts | 268° |
| 2026-04-21 16:39 | -14.81572 | -39.04663 | 503 ft | 171 kts | 274° |
| 2026-04-21 16:39 | -14.81424 | -39.05898 | 1208 ft | 181 kts | 277° |
| 2026-04-21 16:40 | -14.81308 | -39.06748 | 1399 ft | 182 kts | 275° |
| 2026-04-21 16:40 | -14.81350 | -39.08494 | 1443 ft | 179 kts | 239° |
| 2026-04-21 16:40 | -14.81854 | -39.09159 | 1490 ft | 180 kts | 212° |
| 2026-04-21 16:40 | -14.83018 | -39.09604 | 1460 ft | 180 kts | 186° |
| 2026-04-21 16:41 | -14.84217 | -39.09773 | 1453 ft | 167 kts | 175° |
| 2026-04-21 16:41 | -14.85228 | -39.09319 | 1480 ft | 161 kts | 132° |
| 2026-04-21 16:41 | -14.85638 | -39.08236 | 1479 ft | 169 kts | 91° |
| 2026-04-21 16:41 | -14.85618 | -39.06964 | 1543 ft | 193 kts | 92° |
| 2026-04-21 16:42 | -14.85597 | -39.05432 | 1543 ft | 229 kts | 90° |
| 2026-04-21 16:42 | -14.85595 | -39.03768 | 1619 ft | 230 kts | 92° |
| 2026-04-21 16:42 | -14.85610 | -39.02076 | 2008 ft | 241 kts | 93° |
| 2026-04-21 16:42 | -14.85316 | -39.00317 | 2433 ft | 262 kts | 63° |
| 2026-04-21 16:43 | -14.84008 | -38.98990 | 3248 ft | 269 kts | 28° |
| 2026-04-21 16:43 | -14.82279 | -38.98188 | 4068 ft | 275 kts | 24° |
| 2026-04-21 16:43 | -14.80497 | -38.97411 | 4891 ft | 281 kts | 24° |
| 2026-04-21 16:43 | -14.78725 | -38.96621 | 5761 ft | 281 kts | 25° |
| 2026-04-21 16:44 | -14.76934 | -38.95794 | 6603 ft | 284 kts | 25° |
| 2026-04-21 16:44 | -14.75132 | -38.94936 | 7390 ft | 286 kts | 26° |
| 2026-04-21 16:44 | -14.73320 | -38.94053 | 8173 ft | 289 kts | 27° |
| 2026-04-21 16:44 | -14.71489 | -38.93147 | 8930 ft | 294 kts | 27° |
| 2026-04-21 16:45 | -14.69636 | -38.92219 | 9701 ft | 297 kts | 27° |
| 2026-04-21 16:45 | -14.67762 | -38.91273 | 10385 ft | 304 kts | 27° |
| 2026-04-21 16:45 | -14.65791 | -38.90272 | 10602 ft | 327 kts | 27° |
| 2026-04-21 16:45 | -14.63702 | -38.89207 | 10836 ft | 347 kts | 27° |
| 2026-04-21 16:46 | -14.61510 | -38.88088 | 11327 ft | 355 kts | 26° |
| 2026-04-21 16:46 | -14.59286 | -38.86951 | 12041 ft | 356 kts | 26° |
| 2026-04-21 16:46 | -14.57058 | -38.85812 | 12691 ft | 360 kts | 26° |
| 2026-04-21 16:46 | -14.54798 | -38.84656 | 13298 ft | 365 kts | 25° |
| 2026-04-21 16:47 | -14.52506 | -38.83483 | 13912 ft | 369 kts | 25° |
| 2026-04-21 16:47 | -14.50198 | -38.82303 | 14481 ft | 372 kts | 25° |
| 2026-04-21 16:47 | -14.47874 | -38.81115 | 15063 ft | 374 kts | 25° |
| 2026-04-21 16:47 | -14.45529 | -38.79916 | 15638 ft | 377 kts | 25° |
| 2026-04-21 16:48 | -14.43173 | -38.78710 | 16204 ft | 380 kts | 25° |
| 2026-04-21 16:48 | -14.40797 | -38.77496 | 16751 ft | 383 kts | 24° |
| 2026-04-21 16:48 | -14.38403 | -38.76272 | 17295 ft | 386 kts | 24° |
| 2026-04-21 16:48 | -14.35985 | -38.75036 | 17827 ft | 389 kts | 24° |
| 2026-04-21 16:49 | -14.33544 | -38.73789 | 18344 ft | 393 kts | 24° |
| 2026-04-21 16:49 | -14.31116 | -38.72549 | 18787 ft | 396 kts | 24° |
| 2026-04-21 16:49 | -14.28643 | -38.71286 | 19232 ft | 399 kts | 24° |
| 2026-04-21 16:49 | -14.26144 | -38.70010 | 19680 ft | 402 kts | 24° |
| 2026-04-21 16:50 | -14.23634 | -38.68729 | 20121 ft | 405 kts | 24° |
| 2026-04-21 16:50 | -14.21103 | -38.67437 | 20569 ft | 407 kts | 24° |
| 2026-04-21 16:50 | -14.18550 | -38.66134 | 21002 ft | 410 kts | 24° |
| 2026-04-21 16:50 | -14.15985 | -38.64826 | 21427 ft | 413 kts | 24° |
| 2026-04-21 16:51 | -14.13395 | -38.63505 | 21848 ft | 416 kts | 24° |
| 2026-04-21 16:51 | -14.10788 | -38.62176 | 22267 ft | 419 kts | 24° |
| 2026-04-21 16:51 | -14.08161 | -38.60837 | 22684 ft | 422 kts | 24° |
| 2026-04-21 16:51 | -14.05522 | -38.59492 | 23091 ft | 425 kts | 24° |
| 2026-04-21 16:52 | -14.02864 | -38.58138 | 23494 ft | 427 kts | 24° |
| 2026-04-21 16:52 | -14.00189 | -38.56775 | 23827 ft | 430 kts | 24° |
| 2026-04-21 16:52 | -13.97499 | -38.55405 | 24153 ft | 432 kts | 24° |
| 2026-04-21 16:52 | -13.94863 | -38.54062 | 24469 ft | 434 kts | 24° |
| 2026-04-21 16:53 | -13.92141 | -38.52678 | 24791 ft | 437 kts | 24° |
| 2026-04-21 16:53 | -13.89389 | -38.51334 | 25105 ft | 438 kts | 19° |
| 2026-04-21 16:53 | -13.86499 | -38.50364 | 25408 ft | 437 kts | 12° |
| 2026-04-21 16:53 | -13.83552 | -38.49572 | 25722 ft | 439 kts | 11° |
| 2026-04-21 16:54 | -13.80582 | -38.48806 | 26026 ft | 441 kts | 11° |
| 2026-04-21 16:54 | -13.77589 | -38.48036 | 26321 ft | 443 kts | 11° |
| 2026-04-21 16:54 | -13.74593 | -38.47256 | 26626 ft | 445 kts | 11° |
| 2026-04-21 16:54 | -13.71582 | -38.46461 | 26913 ft | 447 kts | 11° |
| 2026-04-21 16:55 | -13.68558 | -38.45654 | 27194 ft | 450 kts | 11° |
| 2026-04-21 16:55 | -13.65520 | -38.44838 | 27478 ft | 452 kts | 11° |
| 2026-04-21 16:55 | -13.62468 | -38.44015 | 27754 ft | 454 kts | 11° |
| 2026-04-21 16:55 | -13.59447 | -38.43200 | 28019 ft | 456 kts | 11° |
| 2026-04-21 16:56 | -13.56370 | -38.42370 | 28283 ft | 458 kts | 11° |
| 2026-04-21 16:56 | -13.53285 | -38.41538 | 28541 ft | 460 kts | 11° |
| 2026-04-21 16:56 | -13.50181 | -38.40702 | 28796 ft | 461 kts | 11° |
| 2026-04-21 16:56 | -13.47070 | -38.39865 | 29049 ft | 463 kts | 11° |
| 2026-04-21 16:57 | -13.43953 | -38.39026 | 29302 ft | 465 kts | 11° |
| 2026-04-21 16:57 | -13.40821 | -38.38183 | 29627 ft | 464 kts | 11° |
| 2026-04-21 16:57 | -13.37701 | -38.37343 | 30011 ft | 463 kts | 11° |
| 2026-04-21 16:57 | -13.34593 | -38.36507 | 30335 ft | 462 kts | 11° |
| 2026-04-21 16:58 | -13.31478 | -38.35670 | 30614 ft | 462 kts | 11° |
| 2026-04-21 16:58 | -13.28371 | -38.34835 | 30881 ft | 462 kts | 11° |
| 2026-04-21 16:58 | -13.27320 | -38.34553 | 30983 ft | 462 kts | 11° |
| 2026-04-21 16:59 | -13.24849 | -38.33889 | 31227 ft | 461 kts | 10° |
| 2026-04-21 16:59 | -13.21747 | -38.33056 | 31528 ft | 460 kts | 10° |
| 2026-04-21 17:00 | -13.18647 | -38.32223 | 31808 ft | 460 kts | 10° |
| 2026-04-21 17:00 | -13.15551 | -38.31392 | 32087 ft | 460 kts | 10° |
| 2026-04-21 17:00 | -13.13497 | -38.30841 | 32287 ft | 460 kts | 10° |
| 2026-04-21 17:00 | -13.09355 | -38.29729 | 32672 ft | 459 kts | 10° |
| 2026-04-21 17:01 | -13.06262 | -38.28900 | 32958 ft | 459 kts | 10° |
| 2026-04-21 17:01 | -13.00034 | -38.27235 | 32981 ft | 464 kts | 10° |
| 2026-04-21 17:02 | -12.93845 | -38.25577 | 32966 ft | 459 kts | 10° |
| 2026-04-21 17:02 | -12.87706 | -38.23930 | 32971 ft | 457 kts | 10° |
| 2026-04-21 17:03 | -12.81519 | -38.22276 | 32978 ft | 457 kts | 10° |
| 2026-04-21 17:03 | -12.75370 | -38.20635 | 32980 ft | 457 kts | 10° |
| 2026-04-21 17:04 | -12.69236 | -38.18996 | 32972 ft | 458 kts | 10° |
| 2026-04-21 17:04 | -12.63061 | -38.17347 | 32973 ft | 459 kts | 10° |
| 2026-04-21 17:05 | -12.56877 | -38.15696 | 32975 ft | 459 kts | 10° |
| 2026-04-21 17:05 | -12.50685 | -38.14043 | 32977 ft | 460 kts | 10° |
| 2026-04-21 17:06 | -12.44488 | -38.12390 | 32979 ft | 460 kts | 11° |
| 2026-04-21 17:06 | -12.38287 | -38.10736 | 32970 ft | 460 kts | 11° |
| 2026-04-21 17:07 | -12.33135 | -38.09363 | 32974 ft | 460 kts | 11° |
| 2026-04-21 17:07 | -12.25926 | -38.07443 | 32968 ft | 460 kts | 11° |
| 2026-04-21 17:08 | -12.19736 | -38.05797 | 32981 ft | 459 kts | 11° |
| 2026-04-21 17:08 | -12.13550 | -38.04153 | 32976 ft | 459 kts | 11° |
| 2026-04-21 17:09 | -12.04296 | -38.01693 | 32969 ft | 459 kts | 11° |
| 2026-04-21 17:09 | -11.98115 | -38.00051 | 32968 ft | 458 kts | 11° |
| 2026-04-21 17:10 | -11.91946 | -37.98413 | 32972 ft | 458 kts | 11° |
| 2026-04-21 17:10 | -11.85775 | -37.96775 | 32968 ft | 458 kts | 11° |
| 2026-04-21 17:11 | -11.79604 | -37.95138 | 32971 ft | 458 kts | 11° |
| 2026-04-21 17:11 | -11.73436 | -37.93502 | 32971 ft | 457 kts | 11° |
| 2026-04-21 17:12 | -11.67313 | -37.91879 | 32961 ft | 457 kts | 12° |
| 2026-04-21 17:12 | -11.61151 | -37.90246 | 32961 ft | 457 kts | 12° |
| 2026-04-21 17:13 | -11.54994 | -37.88615 | 32967 ft | 457 kts | 12° |
| 2026-04-21 17:13 | -11.48836 | -37.86985 | 32960 ft | 456 kts | 12° |
| 2026-04-21 17:14 | -11.42680 | -37.85357 | 32966 ft | 456 kts | 12° |
| 2026-04-21 17:14 | -11.36570 | -37.83741 | 32967 ft | 456 kts | 12° |
| 2026-04-21 17:15 | -11.30421 | -37.82115 | 32963 ft | 456 kts | 12° |
| 2026-04-21 17:15 | -11.24280 | -37.80492 | 32963 ft | 456 kts | 12° |
| 2026-04-21 17:16 | -11.18140 | -37.78869 | 32977 ft | 455 kts | 12° |
| 2026-04-21 17:16 | -11.12007 | -37.77249 | 32963 ft | 455 kts | 12° |
| 2026-04-21 17:17 | -11.05868 | -37.75629 | 32957 ft | 456 kts | 12° |
| 2026-04-21 17:17 | -10.99762 | -37.74017 | 32973 ft | 455 kts | 12° |
| 2026-04-21 17:18 | -10.93631 | -37.72400 | 32963 ft | 455 kts | 12° |
| 2026-04-21 17:18 | -10.87543 | -37.70794 | 32964 ft | 454 kts | 12° |
| 2026-04-21 17:19 | -10.81440 | -37.69186 | 32969 ft | 453 kts | 12° |
| 2026-04-21 17:19 | -10.75287 | -37.67565 | 32957 ft | 452 kts | 12° |
| 2026-04-21 17:20 | -10.69239 | -37.65972 | 32966 ft | 452 kts | 12° |
| 2026-04-21 17:20 | -10.63143 | -37.64367 | 32963 ft | 452 kts | 12° |
| 2026-04-21 17:21 | -10.57062 | -37.62766 | 32958 ft | 451 kts | 12° |
| 2026-04-21 17:21 | -10.50979 | -37.61166 | 32964 ft | 451 kts | 12° |
| 2026-04-21 17:22 | -10.44892 | -37.59568 | 32954 ft | 452 kts | 12° |
| 2026-04-21 17:22 | -10.38805 | -37.57970 | 32960 ft | 452 kts | 12° |
| 2026-04-21 17:23 | -10.32707 | -37.56369 | 32957 ft | 452 kts | 12° |
| 2026-04-21 17:23 | -10.26662 | -37.54783 | 32954 ft | 452 kts | 12° |
| 2026-04-21 17:24 | -10.20567 | -37.53184 | 32953 ft | 452 kts | 12° |
| 2026-04-21 17:24 | -10.14477 | -37.51587 | 32946 ft | 452 kts | 12° |
| 2026-04-21 17:25 | -10.08385 | -37.49990 | 32950 ft | 452 kts | 12° |
| 2026-04-21 17:25 | -10.02295 | -37.48394 | 32950 ft | 452 kts | 12° |
| 2026-04-21 17:26 | -9.96200 | -37.46797 | 32946 ft | 452 kts | 12° |
| 2026-04-21 17:26 | -9.90109 | -37.45202 | 32942 ft | 452 kts | 12° |
| 2026-04-21 17:27 | -9.84023 | -37.43609 | 32945 ft | 452 kts | 12° |
| 2026-04-21 17:27 | -9.77925 | -37.42014 | 32938 ft | 451 kts | 12° |
| 2026-04-21 17:28 | -9.71881 | -37.40433 | 32955 ft | 451 kts | 12° |
| 2026-04-21 17:28 | -9.65801 | -37.38844 | 32946 ft | 451 kts | 12° |
| 2026-04-21 17:29 | -9.59717 | -37.37253 | 32938 ft | 451 kts | 12° |
| 2026-04-21 17:29 | -9.54627 | -37.35923 | 32941 ft | 450 kts | 12° |
| 2026-04-21 17:30 | -9.48616 | -37.34354 | 32937 ft | 448 kts | 13° |
| 2026-04-21 17:30 | -9.42570 | -37.32775 | 32940 ft | 447 kts | 13° |
| 2026-04-21 17:31 | -9.36556 | -37.31205 | 32942 ft | 446 kts | 13° |
| 2026-04-21 17:31 | -9.30543 | -37.29637 | 32942 ft | 445 kts | 13° |
| 2026-04-21 17:32 | -9.24547 | -37.28073 | 32944 ft | 445 kts | 13° |
| 2026-04-21 17:32 | -9.18580 | -37.26517 | 32945 ft | 445 kts | 13° |
| 2026-04-21 17:33 | -9.12586 | -37.24955 | 32949 ft | 445 kts | 13° |
| 2026-04-21 17:33 | -9.06586 | -37.23391 | 32948 ft | 445 kts | 13° |
| 2026-04-21 17:34 | -9.00587 | -37.21821 | 32950 ft | 445 kts | 15° |
| 2026-04-21 17:34 | -8.94992 | -37.19225 | 32930 ft | 437 kts | 32° |
| 2026-04-21 17:35 | -8.90252 | -37.15482 | 32942 ft | 430 kts | 37° |
| 2026-04-21 17:35 | -8.85641 | -37.11706 | 32622 ft | 429 kts | 37° |
| 2026-04-21 17:36 | -8.83337 | -37.09832 | 32299 ft | 423 kts | 37° |
| 2026-04-21 17:36 | -8.81040 | -37.07974 | 31903 ft | 420 kts | 37° |
| 2026-04-21 17:36 | -8.78762 | -37.06140 | 31505 ft | 417 kts | 37° |
| 2026-04-21 17:36 | -8.76495 | -37.04317 | 31110 ft | 415 kts | 37° |
| 2026-04-21 17:37 | -8.74237 | -37.02504 | 30701 ft | 413 kts | 37° |
| 2026-04-21 17:37 | -8.71984 | -37.00698 | 30294 ft | 412 kts | 37° |
| 2026-04-21 17:37 | -8.69745 | -36.98902 | 29865 ft | 411 kts | 37° |
| 2026-04-21 17:37 | -8.67509 | -36.97108 | 29428 ft | 408 kts | 37° |
| 2026-04-21 17:38 | -8.65290 | -36.95328 | 28984 ft | 405 kts | 37° |
| 2026-04-21 17:38 | -8.63090 | -36.93563 | 28573 ft | 402 kts | 37° |
| 2026-04-21 17:38 | -8.60905 | -36.91809 | 28163 ft | 399 kts | 37° |
| 2026-04-21 17:38 | -8.58737 | -36.90070 | 27757 ft | 396 kts | 37° |
| 2026-04-21 17:39 | -8.56609 | -36.88363 | 27371 ft | 394 kts | 37° |
| 2026-04-21 17:39 | -8.54469 | -36.86648 | 26969 ft | 391 kts | 37° |
| 2026-04-21 17:39 | -8.52348 | -36.84948 | 26576 ft | 389 kts | 37° |
| 2026-04-21 17:39 | -8.50236 | -36.83254 | 26182 ft | 386 kts | 37° |
| 2026-04-21 17:40 | -8.48137 | -36.81572 | 25793 ft | 384 kts | 37° |
| 2026-04-21 17:40 | -8.46048 | -36.79898 | 25393 ft | 382 kts | 37° |
| 2026-04-21 17:40 | -8.43963 | -36.78228 | 24997 ft | 381 kts | 38° |
| 2026-04-21 17:40 | -8.41889 | -36.76567 | 24593 ft | 380 kts | 38° |
| 2026-04-21 17:41 | -8.39822 | -36.74911 | 24202 ft | 379 kts | 38° |
| 2026-04-21 17:41 | -8.37757 | -36.73257 | 23808 ft | 378 kts | 38° |
| 2026-04-21 17:41 | -8.35700 | -36.71610 | 23386 ft | 377 kts | 38° |
| 2026-04-21 17:41 | -8.33649 | -36.69968 | 22949 ft | 375 kts | 38° |
| 2026-04-21 17:42 | -8.31610 | -36.68335 | 22546 ft | 372 kts | 38° |
| 2026-04-21 17:42 | -8.29615 | -36.66737 | 22155 ft | 370 kts | 38° |
| 2026-04-21 17:42 | -8.27607 | -36.65130 | 21771 ft | 367 kts | 38° |
| 2026-04-21 17:42 | -8.25612 | -36.63533 | 21391 ft | 365 kts | 38° |
| 2026-04-21 17:43 | -8.23628 | -36.61946 | 21016 ft | 362 kts | 38° |
| 2026-04-21 17:43 | -8.21659 | -36.60371 | 20640 ft | 360 kts | 38° |
| 2026-04-21 17:43 | -8.19683 | -36.58819 | 20215 ft | 360 kts | 37° |
| 2026-04-21 17:43 | -8.17679 | -36.57307 | 19838 ft | 358 kts | 37° |
| 2026-04-21 17:44 | -8.15678 | -36.55819 | 19450 ft | 357 kts | 37° |
| 2026-04-21 17:44 | -8.13681 | -36.54337 | 19080 ft | 355 kts | 37° |
| 2026-04-21 17:44 | -8.11700 | -36.52864 | 18790 ft | 351 kts | 37° |
| 2026-04-21 17:44 | -8.09752 | -36.51413 | 18558 ft | 345 kts | 37° |
| 2026-04-21 17:45 | -8.07837 | -36.49983 | 18336 ft | 340 kts | 37° |
| 2026-04-21 17:45 | -8.05949 | -36.48573 | 18096 ft | 336 kts | 37° |
| 2026-04-21 17:45 | -8.04079 | -36.47176 | 17843 ft | 333 kts | 37° |
| 2026-04-21 17:45 | -8.02222 | -36.45788 | 17592 ft | 332 kts | 37° |
| 2026-04-21 17:46 | -8.00391 | -36.44417 | 17329 ft | 331 kts | 37° |
| 2026-04-21 17:46 | -7.98545 | -36.43035 | 17089 ft | 330 kts | 38° |
| 2026-04-21 17:46 | -7.96871 | -36.41781 | 16856 ft | 328 kts | 38° |
| 2026-04-21 17:46 | -7.95037 | -36.40407 | 16609 ft | 327 kts | 38° |
| 2026-04-21 17:47 | -7.93214 | -36.39041 | 16369 ft | 327 kts | 38° |
| 2026-04-21 17:47 | -7.91381 | -36.37668 | 16128 ft | 328 kts | 38° |
| 2026-04-21 17:47 | -7.89538 | -36.36287 | 15894 ft | 331 kts | 38° |
| 2026-04-21 17:47 | -7.87687 | -36.34901 | 15654 ft | 330 kts | 38° |
| 2026-04-21 17:48 | -7.86465 | -36.33987 | 15501 ft | 329 kts | 38° |
| 2026-04-21 17:48 | -7.84008 | -36.32149 | 15184 ft | 328 kts | 38° |
| 2026-04-21 17:48 | -7.82177 | -36.30779 | 14946 ft | 327 kts | 38° |
| 2026-04-21 17:48 | -7.80353 | -36.29417 | 14717 ft | 326 kts | 38° |
| 2026-04-21 17:49 | -7.78552 | -36.28071 | 14490 ft | 325 kts | 38° |
| 2026-04-21 17:49 | -7.76738 | -36.26715 | 14248 ft | 325 kts | 38° |
| 2026-04-21 17:49 | -7.74926 | -36.25360 | 14030 ft | 324 kts | 38° |
| 2026-04-21 17:49 | -7.73118 | -36.24006 | 13814 ft | 323 kts | 38° |
| 2026-04-21 17:50 | -7.71314 | -36.22657 | 13567 ft | 322 kts | 38° |
| 2026-04-21 17:50 | -7.69516 | -36.21312 | 13311 ft | 321 kts | 38° |
| 2026-04-21 17:50 | -7.67723 | -36.19971 | 13064 ft | 321 kts | 38° |
| 2026-04-21 17:50 | -7.65932 | -36.18633 | 12809 ft | 320 kts | 38° |
| 2026-04-21 17:51 | -7.64145 | -36.17297 | 12557 ft | 319 kts | 38° |
| 2026-04-21 17:51 | -7.62355 | -36.15960 | 12302 ft | 319 kts | 38° |
| 2026-04-21 17:51 | -7.60575 | -36.14630 | 12075 ft | 319 kts | 38° |
| 2026-04-21 17:51 | -7.58793 | -36.13298 | 11830 ft | 318 kts | 38° |
| 2026-04-21 17:52 | -7.57022 | -36.11975 | 11584 ft | 316 kts | 38° |
| 2026-04-21 17:52 | -7.55264 | -36.10662 | 11347 ft | 312 kts | 38° |
| 2026-04-21 17:52 | -7.53526 | -36.09365 | 11110 ft | 309 kts | 38° |
| 2026-04-21 17:52 | -7.51827 | -36.08096 | 10902 ft | 308 kts | 38° |
| 2026-04-21 17:53 | -7.50103 | -36.06808 | 10678 ft | 309 kts | 38° |
| 2026-04-21 17:53 | -7.48373 | -36.05518 | 10448 ft | 309 kts | 38° |
| 2026-04-21 17:53 | -7.46645 | -36.04229 | 10209 ft | 308 kts | 38° |
| 2026-04-21 17:53 | -7.44927 | -36.02946 | 9976 ft | 307 kts | 38° |
| 2026-04-21 17:54 | -7.43217 | -36.01669 | 9741 ft | 304 kts | 38° |
| 2026-04-21 17:54 | -7.41526 | -36.00407 | 9486 ft | 301 kts | 38° |
| 2026-04-21 17:54 | -7.39850 | -35.99157 | 9235 ft | 297 kts | 38° |
| 2026-04-21 17:54 | -7.38201 | -35.97925 | 8991 ft | 293 kts | 38° |
| 2026-04-21 17:55 | -7.36573 | -35.96709 | 8745 ft | 290 kts | 38° |
| 2026-04-21 17:55 | -7.34979 | -35.95520 | 8505 ft | 287 kts | 38° |
| 2026-04-21 17:55 | -7.33360 | -35.94312 | 8253 ft | 285 kts | 38° |
| 2026-04-21 17:55 | -7.31793 | -35.93144 | 8010 ft | 283 kts | 38° |
| 2026-04-21 17:56 | -7.30218 | -35.91971 | 7769 ft | 280 kts | 37° |
| 2026-04-21 17:56 | -7.28461 | -35.91148 | 7497 ft | 281 kts | 11° |
| 2026-04-21 17:56 | -7.26530 | -35.91222 | 7261 ft | 279 kts | 343° |
| 2026-04-21 17:56 | -7.24826 | -35.92101 | 7051 ft | 275 kts | 327° |
| 2026-04-21 17:57 | -7.23228 | -35.93121 | 6960 ft | 267 kts | 327° |
| 2026-04-21 17:57 | -7.21676 | -35.94114 | 6820 ft | 263 kts | 327° |
| 2026-04-21 17:57 | -7.20134 | -35.95103 | 6617 ft | 261 kts | 327° |
| 2026-04-21 17:57 | -7.18622 | -35.96075 | 6389 ft | 256 kts | 327° |
| 2026-04-21 17:58 | -7.17130 | -35.97031 | 6119 ft | 250 kts | 327° |
| 2026-04-21 17:58 | -7.15690 | -35.97952 | 5840 ft | 240 kts | 327° |
| 2026-04-21 17:58 | -7.14330 | -35.98825 | 5609 ft | 230 kts | 327° |
| 2026-04-21 17:58 | -7.13047 | -35.99652 | 5583 ft | 208 kts | 327° |
| 2026-04-21 17:59 | -7.11871 | -36.00412 | 5574 ft | 198 kts | 327° |
| 2026-04-21 17:59 | -7.10692 | -36.01174 | 5383 ft | 207 kts | 327° |
| 2026-04-21 17:59 | -7.09595 | -36.02117 | 5063 ft | 209 kts | 301° |
| 2026-04-21 17:59 | -7.09207 | -36.03480 | 4721 ft | 201 kts | 263° |
| 2026-04-21 18:00 | -7.09689 | -36.04715 | 4396 ft | 185 kts | 224° |
| 2026-04-21 18:00 | -7.10759 | -36.05292 | 4073 ft | 172 kts | 181° |
| 2026-04-21 18:00 | -7.11936 | -36.05202 | 4061 ft | 177 kts | 184° |
| 2026-04-21 18:00 | -7.13154 | -36.05447 | 4110 ft | 180 kts | 184° |
| 2026-04-21 18:01 | -7.14404 | -36.05367 | 3961 ft | 176 kts | 167° |
| 2026-04-21 18:01 | -7.15529 | -36.04956 | 4053 ft | 180 kts | 144° |
| 2026-04-21 18:01 | -7.16408 | -36.04070 | 4098 ft | 174 kts | 131° |
| 2026-04-21 18:01 | -7.17162 | -36.03160 | 4102 ft | 165 kts | 129° |
| 2026-04-21 18:02 | -7.17860 | -36.02328 | 4096 ft | 151 kts | 134° |
| 2026-04-21 18:02 | -7.18590 | -36.01512 | 4069 ft | 153 kts | 128° |
| 2026-04-21 18:02 | -7.19227 | -36.00648 | 3992 ft | 153 kts | 127° |
| 2026-04-21 18:02 | -7.19848 | -35.99767 | 3838 ft | 154 kts | 126° |
| 2026-04-21 18:03 | -7.20477 | -35.98894 | 3665 ft | 153 kts | 127° |
| 2026-04-21 18:03 | -7.21085 | -35.98021 | 3561 ft | 153 kts | 124° |
| 2026-04-21 18:03 | -7.21693 | -35.97139 | 3326 ft | 151 kts | 125° |
| 2026-04-21 18:03 | -7.22293 | -35.96290 | 3074 ft | 146 kts | 127° |
| 2026-04-21 18:04 | -7.22875 | -35.95467 | 2850 ft | 140 kts | 127° |
| 2026-04-21 18:04 | -7.23421 | -35.94681 | 2722 ft | 134 kts | 126° |
| 2026-04-21 18:04 | -7.23941 | -35.93921 | 2572 ft | 135 kts | 127° |
| 2026-04-21 18:04 | -7.24471 | -35.93134 | 2365 ft | 136 kts | 128° |
| 2026-04-21 18:05 | -7.25038 | -35.92363 | 2232 ft | 139 kts | 126° |
| 2026-04-21 18:05 | -7.25600 | -35.91556 | 2049 ft | 142 kts | 123° |
| 2026-04-21 18:05 | -7.26167 | -35.90740 | 1837 ft | 141 kts | 123° |
| 2026-04-21 18:05 | -7.26722 | -35.89951 | 1669 ft | 130 kts | 123° |
| 2026-04-21 18:06 | -7.27085 | -35.89424 | 1662 ft | 40 kts | 125° |
| 2026-04-21 18:06 | -7.27191 | -35.89271 | 1665 ft | 26 kts | 126° |
| 2026-04-21 18:06 | -7.27279 | -35.89147 | 1664 ft | 12 kts | 125° |
| 2026-04-21 18:06 | -7.27311 | -35.89102 | 1664 ft | 7 kts | 125° |
| 2026-04-21 18:07 | -7.27343 | -35.89068 | 1664 ft | 7 kts | 145° |
| 2026-04-21 18:07 | -7.27383 | -35.89047 | 1670 ft | 7 kts | 127° |
| 2026-04-21 18:07 | -7.27374 | -35.89022 | 1663 ft | 1 kts | 30° |
| 2026-04-21 18:07 | -7.27362 | -35.89023 | 1671 ft | 3 kts | 349° |
| 2026-04-21 18:08 | -7.27347 | -35.89041 | 1668 ft | 4 kts | 297° |
| 2026-04-21 18:08 | -7.27329 | -35.89073 | 1662 ft | 7 kts | 299° |
| 2026-04-21 18:08 | -7.27300 | -35.89119 | 1665 ft | 8 kts | 305° |